• Join FlightAware (Why Join?)
  • Login
  • US Flag 
09:58PM EDT


 

Airport Tracker/Info


-or-


 

Live Flight TrackerFlight Track Log ✈ TAM3035 ✈ 12-Jul-2013 ✈ SBSP / CGH - SBJV / JOI

Flight Track Log - Related Links

Times and Time Zones

All times are in EDT time to prevent confusion due to time zone crossing. See the TAM3035 flight status page for this flight to view local times or setup timezone preferences in your user account.

Time Position Orientation Groundspeed Altitude Reporting Facility
EDT Latitude Longitude Course Direction KTS MPH feet Rate Location/Type
09:22AM -23.8790 -46.8585 216° Southwest  Level Estimated
09:23AM -23.9210 -46.8924 216° Southwest  Level Estimated
09:24AM -23.9631 -46.9264 216° Southwest  Level Estimated
09:25AM -24.0051 -46.9603 216° Southwest  Level Estimated
09:26AM -24.0471 -46.9943 216° Southwest  Level Estimated
09:27AM -24.0891 -47.0283 216° Southwest  Level Estimated
09:28AM -24.1311 -47.0624 216° Southwest  Level Estimated
09:29AM -24.1730 -47.0964 217° Southwest  Level Estimated
09:30AM -24.2150 -47.1305 217° Southwest  Level Estimated
09:31AM -24.2570 -47.1646 217° Southwest  Level Estimated
09:32AM -24.2989 -47.1988 217° Southwest  Level Estimated
09:33AM -24.3409 -47.2329 217° Southwest  Level Estimated
09:34AM -24.3828 -47.2671 217° Southwest  Level Estimated
09:35AM -24.4248 -47.3013 217° Southwest  Level Estimated
09:36AM -24.4667 -47.3355 217° Southwest  Level Estimated
09:37AM -24.5086 -47.3697 217° Southwest  Level Estimated
09:38AM -24.5505 -47.4040 217° Southwest  Level Estimated
09:39AM -24.5924 -47.4383 217° Southwest  Level Estimated
09:40AM -24.6343 -47.4726 217° Southwest  Level Estimated
09:41AM -24.6762 -47.5069 217° Southwest  Level Estimated
09:42AM -24.7181 -47.5413 217° Southwest  Level Estimated
09:43AM -24.7600 -47.5757 217° Southwest  Level Estimated
09:44AM -24.8018 -47.6101 217° Southwest  Level Estimated
09:45AM -24.8437 -47.6445 217° Southwest  Level Estimated
09:46AM -24.8856 -47.6790 217° Southwest  Level Estimated
09:47AM -24.9274 -47.7134 217° Southwest  Level Estimated
09:48AM -24.9692 -47.7479 217° Southwest  Level Estimated
09:49AM -25.0111 -47.7825 217° Southwest  Level Estimated
09:50AM -25.0529 -47.8170 217° Southwest  Level Estimated
09:51AM -25.0947 -47.8516 217° Southwest  Level Estimated
09:52AM -25.1365 -47.8862 217° Southwest  Level Estimated
09:53AM -25.1783 -47.9208 217° Southwest  Level Estimated
09:54AM -25.2201 -47.9554 217° Southwest  Level Estimated
09:55AM -25.2619 -47.9901 217° Southwest  Level Estimated
09:56AM -25.3036 -48.0247 217° Southwest  Level Estimated
09:57AM -25.3454 -48.0595 217° Southwest  Level Estimated
09:58AM -25.3871 -48.0942 217° Southwest  Level Estimated
09:59AM -25.4289 -48.1289 217° Southwest  Level Estimated
10:00AM -25.4706 -48.1637 217° Southwest  Level Estimated
10:01AM -25.5124 -48.1985 217° Southwest  Level Estimated
10:02AM -25.5541 -48.2334 217° Southwest  Level Estimated
10:03AM -25.5958 -48.2682 217° Southwest  Level Estimated
10:04AM -25.6375 -48.3031 217° Southwest  Level Estimated
10:05AM -25.6792 -48.3380 217° Southwest  Level Estimated
10:06AM -25.7209 -48.3729 217° Southwest  Level Estimated
10:07AM -25.7626 -48.4079 217° Southwest  Level Estimated
10:08AM -25.8042 -48.4429 217° Southwest  Level Estimated
10:09AM -25.8459 -48.4779 217° Southwest  Level Estimated
10:10AM -25.8875 -48.5129 217° Southwest  Level Estimated
10:11AM -25.9292 -48.5479 217° Southwest  Level Estimated
10:12AM -25.9708 -48.5830 217° Southwest  Level Estimated
10:13AM -26.0124 -48.6181 217° Southwest  Level Estimated
10:14AM -26.0541 -48.6532 217° Southwest  Level Estimated
10:15AM -26.0957 -48.6884 217° Southwest  Level Estimated
10:16AM -26.1373 -48.7236 217° Southwest  Level Estimated
10:17AM -26.1789 -48.7588 217° Southwest  Level Estimated
10:18AM -26.2205 -48.7940 217° Southwest  Level Estimated
10:19AM -26.2244 -48.7973 217° Southwest  Level Estimated
10:20AM -26.2244 -48.7973 347° North  Level Estimated
10:21AM -26.2244 -48.7973 347° North  Level Estimated
10:22AM -26.2244 -48.7973 347° North  Level Estimated
10:23AM -26.2244 -48.7973 347° North  Level Estimated
10:24AM -26.2244 -48.7973 347° North  Level Estimated
10:25AM -26.2244 -48.7973 347° North  Level Estimated
10:26AM -26.2244 -48.7973 347° North  Level Estimated
10:27AM -26.2244 -48.7973 347° North  Level Estimated
10:28AM -26.2244 -48.7973 347° North  Level Estimated
10:29AM -26.2244 -48.7973 347° North  Level Estimated
10:30AM -26.2244 -48.7973 347° North  Level Estimated
10:31AM -26.2244 -48.7973 347° North  Level Estimated
10:32AM -26.2244 -48.7973 347° North  Level Estimated
10:33AM -26.2244 -48.7973 347° North  Level Estimated
10:34AM -26.2244 -48.7973 347° North  Level Estimated